createdAt,value
2023-01-31T00:00:55.219Z,98829.02
2023-01-31T00:03:24.931Z,98830.98
2023-01-31T00:05:54.544Z,98829.90
2023-01-31T00:08:24.088Z,98825.02
2023-01-31T00:10:55.927Z,98829.44
2023-01-31T00:13:24.986Z,98827.81
2023-01-31T00:15:54.625Z,98828.13
2023-01-31T00:18:24.065Z,98827.05
2023-01-31T00:20:53.661Z,98839.09
2023-01-31T00:23:23.061Z,98841.89
2023-01-31T00:25:52.537Z,98844.63
2023-01-31T00:28:21.733Z,98837.02
2023-01-31T00:30:51.558Z,98848.28
2023-01-31T00:33:21.157Z,98840.34
2023-01-31T00:35:50.695Z,98846.11
2023-01-31T00:38:19.976Z,98849.44
2023-01-31T00:41:15.913Z,98854.14
2023-01-31T00:43:45.277Z,98856.62
2023-01-31T00:46:15.131Z,98857.48
2023-01-31T00:48:44.693Z,98852.28
2023-01-31T00:51:14.003Z,98853.97
2023-01-31T00:53:43.515Z,98855.66
2023-01-31T00:56:13.854Z,98849.09
2023-01-31T00:58:43.049Z,98854.84
2023-01-31T01:01:14.110Z,98852.70
2023-01-31T01:03:43.846Z,98852.48
2023-01-31T01:06:13.007Z,98852.76
2023-01-31T01:08:42.495Z,98853.07
2023-01-31T01:11:16.324Z,98851.44
2023-01-31T01:13:45.523Z,98853.95
2023-01-31T01:16:18.799Z,98853.41
2023-01-31T01:18:49.152Z,98856.42
2023-01-31T01:21:19.308Z,98849.89
2023-01-31T01:23:51.181Z,98849.09
2023-01-31T01:26:24.060Z,98848.31
2023-01-31T01:28:53.334Z,98843.72
2023-01-31T01:31:22.949Z,98845.97
2023-01-31T01:33:54.545Z,98847.10
2023-01-31T01:36:23.822Z,98842.73
2023-01-31T01:38:53.225Z,98843.05
2023-01-31T01:41:22.447Z,98843.33
2023-01-31T01:43:53.018Z,98851.86
2023-01-31T01:46:29.515Z,98855.16
2023-01-31T01:49:00.309Z,98854.23
2023-01-31T01:51:29.898Z,98851.34
2023-01-31T01:53:59.442Z,98855.94
2023-01-31T01:56:30.356Z,98857.77
2023-01-31T01:59:03.656Z,98863.18
2023-01-31T02:01:34.479Z,98861.21
2023-01-31T02:04:04.870Z,98875.93
2023-01-31T02:06:35.075Z,98870.12
2023-01-31T02:09:05.220Z,98874.99
2023-01-31T02:11:35.072Z,98874.66
2023-01-31T02:14:08.481Z,98872.69
2023-01-31T02:16:38.519Z,98881.37
2023-01-31T02:19:09.663Z,98880.49
2023-01-31T02:21:57.066Z,98885.91
2023-01-31T02:24:28.273Z,98888.81
2023-01-31T02:27:15.637Z,98889.84
2023-01-31T02:29:55.029Z,98893.88
2023-01-31T02:32:41.414Z,98903.63
2023-01-31T02:35:27.777Z,98905.19
2023-01-31T02:38:01.270Z,98899.88
2023-01-31T02:40:35.914Z,98900.90
2023-01-31T02:43:07.303Z,98898.64
2023-01-31T02:45:38.304Z,98898.80
2023-01-31T02:48:19.270Z,98893.53
2023-01-31T02:50:49.939Z,98896.17
2023-01-31T02:53:26.680Z,98905.39
2023-01-31T02:56:21.369Z,98905.90
2023-01-31T02:59:04.290Z,98900.97
2023-01-31T03:01:44.111Z,98897.19
2023-01-31T03:04:13.804Z,98914.16
2023-01-31T03:06:44.424Z,98914.27
2023-01-31T03:09:20.976Z,98923.67
2023-01-31T03:11:51.753Z,98920.74
2023-01-31T03:14:22.326Z,98924.20
2023-01-31T03:17:10.446Z,98917.17
2023-01-31T03:19:43.897Z,98920.83
2023-01-31T03:22:15.276Z,98923.59
2023-01-31T03:24:44.571Z,98923.15
2023-01-31T03:27:16.745Z,98930.39
2023-01-31T03:29:46.303Z,98930.26
2023-01-31T03:32:22.862Z,98924.08
2023-01-31T03:34:52.430Z,98928.52
2023-01-31T03:37:25.854Z,98941.72
2023-01-31T03:39:59.457Z,98944.84
2023-01-31T03:42:32.967Z,98949.89
2023-01-31T03:45:06.494Z,98946.18
2023-01-31T03:47:37.491Z,98954.77
2023-01-31T03:50:13.151Z,98965.72
2023-01-31T03:52:46.468Z,98960.07
2023-01-31T03:55:17.375Z,98968.08
2023-01-31T03:57:47.353Z,98967.03
2023-01-31T04:00:17.402Z,98977.22
2023-01-31T04:02:47.039Z,98976.41
2023-01-31T04:05:18.228Z,98969.88
2023-01-31T04:07:47.704Z,98977.50
2023-01-31T04:10:20.316Z,98964.78
2023-01-31T04:12:49.591Z,98962.98
2023-01-31T04:15:19.203Z,98962.55
2023-01-31T04:17:49.109Z,98962.74
2023-01-31T04:20:18.761Z,98967.56
2023-01-31T04:22:50.471Z,98972.37
2023-01-31T04:25:19.976Z,98967.92
2023-01-31T04:27:49.313Z,98973.05
2023-01-31T04:30:18.595Z,98978.14
2023-01-31T04:32:47.839Z,98976.42
2023-01-31T04:35:18.398Z,98976.91
2023-01-31T04:37:47.850Z,98982.03
2023-01-31T04:40:18.089Z,98969.34
2023-01-31T04:42:47.675Z,98972.80
2023-01-31T04:45:17.398Z,98984.73
2023-01-31T04:47:46.585Z,98978.08
2023-01-31T04:50:17.622Z,98974.46
2023-01-31T04:52:48.296Z,98968.32
2023-01-31T04:55:18.084Z,98958.91
2023-01-31T04:57:47.727Z,98955.50
2023-01-31T05:00:17.224Z,98946.09
2023-01-31T05:02:46.592Z,98946.78
2023-01-31T05:05:16.054Z,98943.41
2023-01-31T05:07:46.080Z,98947.67
2023-01-31T05:10:15.419Z,98950.59
2023-01-31T05:12:44.722Z,98942.54
2023-01-31T05:15:14.027Z,98934.52
2023-01-31T05:17:43.319Z,98931.66
2023-01-31T05:20:13.314Z,98934.54
2023-01-31T05:22:42.647Z,98927.06
2023-01-31T05:25:11.969Z,98926.67
2023-01-31T05:27:41.349Z,98921.39
2023-01-31T05:30:11.274Z,98921.55
2023-01-31T05:32:40.928Z,98921.19
2023-01-31T05:35:10.390Z,98914.75
2023-01-31T05:37:39.605Z,98919.86
2023-01-31T05:40:08.970Z,98918.31
2023-01-31T05:42:38.330Z,98917.92
2023-01-31T05:45:18.503Z,98927.05
2023-01-31T05:47:49.307Z,98931.83
2023-01-31T05:50:19.230Z,98936.39
2023-01-31T05:52:54.584Z,98939.52
2023-01-31T05:55:23.870Z,98934.76
2023-01-31T05:57:53.741Z,98936.80
2023-01-31T06:00:23.152Z,98940.53
2023-01-31T06:02:52.566Z,98946.12
2023-01-31T06:05:22.232Z,98954.86
2023-01-31T06:07:51.570Z,98958.95
2023-01-31T06:10:21.373Z,98963.66
2023-01-31T06:12:50.684Z,98962.58
2023-01-31T06:15:20.245Z,98985.25
2023-01-31T06:17:49.651Z,98989.13
2023-01-31T06:20:19.218Z,98989.42
2023-01-31T06:22:48.505Z,98985.62
2023-01-31T06:25:17.807Z,98975.85
2023-01-31T06:27:47.138Z,98964.39
2023-01-31T06:30:16.733Z,98984.41
2023-01-31T06:32:46.138Z,98989.87
2023-01-31T06:35:15.713Z,98993.22
2023-01-31T06:37:45.025Z,98985.84
2023-01-31T06:40:14.559Z,98978.81
2023-01-31T06:42:44.420Z,98982.16
2023-01-31T06:45:13.765Z,98976.44
2023-01-31T06:47:43.015Z,98967.21
2023-01-31T06:50:12.900Z,98968.33
2023-01-31T06:52:42.581Z,98970.31
2023-01-31T06:55:12.537Z,98973.86
2023-01-31T06:57:49.076Z,98973.65
2023-01-31T07:00:22.023Z,98955.66
2023-01-31T07:02:51.282Z,98942.61
2023-01-31T07:05:20.923Z,98930.93
2023-01-31T07:07:50.813Z,98924.68
2023-01-31T07:10:20.244Z,98920.37
2023-01-31T07:12:49.510Z,98901.54
2023-01-31T07:15:19.027Z,98881.66
2023-01-31T07:17:48.868Z,98880.08
2023-01-31T07:20:18.147Z,98876.81
2023-01-31T07:22:47.473Z,98875.01
2023-01-31T07:25:16.863Z,98867.09
2023-01-31T07:27:46.200Z,98872.63
2023-01-31T07:30:16.003Z,98870.22
2023-01-31T07:32:45.406Z,98880.06
2023-01-31T07:35:15.084Z,98888.05
2023-01-31T07:37:44.512Z,98874.45
2023-01-31T07:40:14.341Z,98859.42
2023-01-31T07:42:44.175Z,98850.44
2023-01-31T07:45:22.934Z,98842.84
2023-01-31T07:47:44.658Z,98858.70
2023-01-31T07:50:14.136Z,98871.61
2023-01-31T07:52:43.624Z,98879.58
2023-01-31T07:55:13.011Z,98886.16
2023-01-31T07:57:42.322Z,98886.48
2023-01-31T08:00:13.673Z,98880.77
2023-01-31T08:03:00.403Z,98881.91
2023-01-31T08:05:29.695Z,98882.73
2023-01-31T08:08:00.438Z,98890.68
2023-01-31T08:10:29.811Z,98885.82
2023-01-31T08:12:59.131Z,98888.87
2023-01-31T08:15:29.298Z,98881.79
2023-01-31T08:17:58.759Z,98888.94
2023-01-31T08:20:28.139Z,98893.07
2023-01-31T08:22:59.714Z,98887.92
2023-01-31T08:25:30.776Z,98899.46
2023-01-31T08:28:00.130Z,98897.30
2023-01-31T08:30:29.762Z,98905.50
2023-01-31T08:32:58.935Z,98918.41
2023-01-31T08:35:29.296Z,98892.44
2023-01-31T08:38:10.423Z,98881.80
2023-01-31T08:40:29.387Z,98876.65
2023-01-31T08:42:58.707Z,98883.23
2023-01-31T08:45:28.019Z,98884.18
2023-01-31T08:48:00.866Z,98894.41
2023-01-31T08:50:30.695Z,98900.56
2023-01-31T08:53:03.973Z,98893.89
2023-01-31T08:55:33.614Z,98887.52
2023-01-31T08:58:05.349Z,98884.73
2023-01-31T09:00:35.955Z,98888.75
2023-01-31T09:03:06.010Z,98895.23
2023-01-31T09:05:36.429Z,98901.98
2023-01-31T09:08:06.148Z,98889.34
2023-01-31T09:10:36.132Z,98879.39
2023-01-31T09:13:06.028Z,98873.54
2023-01-31T09:15:36.624Z,98872.36
2023-01-31T09:18:07.133Z,98878.80
2023-01-31T09:20:36.894Z,98882.75
2023-01-31T09:23:07.072Z,98885.12
2023-01-31T09:25:46.143Z,98886.55
2023-01-31T09:28:10.084Z,98877.61
2023-01-31T09:30:39.591Z,98875.41
2023-01-31T09:33:08.845Z,98881.45
2023-01-31T09:35:38.229Z,98879.87
2023-01-31T09:38:07.943Z,98896.00
2023-01-31T09:40:37.984Z,98884.86
2023-01-31T09:43:07.874Z,98874.22
2023-01-31T09:45:38.407Z,98858.02
2023-01-31T09:48:08.004Z,98870.73
2023-01-31T09:50:42.067Z,98876.89
2023-01-31T09:53:20.040Z,98889.07
2023-01-31T09:56:06.116Z,98898.02
2023-01-31T09:58:50.107Z,98900.39
2023-01-31T10:01:20.888Z,98909.80
2023-01-31T10:04:09.805Z,98914.64
2023-01-31T10:06:40.783Z,98911.02
2023-01-31T10:09:11.789Z,98920.71
2023-01-31T10:11:48.626Z,98922.00
2023-01-31T10:14:25.247Z,98929.83
2023-01-31T10:16:56.033Z,98935.20
2023-01-31T10:19:26.813Z,98942.20
2023-01-31T10:21:57.452Z,98951.68
2023-01-31T10:24:40.359Z,98939.00
2023-01-31T10:27:17.086Z,98940.00
2023-01-31T10:29:52.978Z,98960.59
2023-01-31T10:32:30.247Z,98965.15
2023-01-31T10:35:00.621Z,98956.80
2023-01-31T10:37:32.457Z,98942.79
2023-01-31T10:40:03.357Z,98933.13
2023-01-31T10:42:34.101Z,98935.70
2023-01-31T10:45:04.265Z,98916.52
2023-01-31T10:47:34.999Z,98898.95
2023-01-31T10:50:06.200Z,98905.16
2023-01-31T10:52:37.620Z,98902.59
2023-01-31T10:55:08.901Z,98891.28
2023-01-31T10:57:39.661Z,98882.73
2023-01-31T11:00:09.507Z,98885.09
2023-01-31T11:02:39.221Z,98891.20
2023-01-31T11:05:09.441Z,98898.16
2023-01-31T11:07:38.870Z,98896.20
2023-01-31T11:10:09.709Z,98902.61
2023-01-31T11:12:43.645Z,98915.88
2023-01-31T11:15:18.013Z,98912.52
2023-01-31T11:17:47.303Z,98912.15
2023-01-31T11:20:17.895Z,98911.77
2023-01-31T11:22:47.086Z,98910.83
2023-01-31T11:25:20.635Z,98903.63
2023-01-31T11:27:49.954Z,98910.28
2023-01-31T11:30:20.867Z,98911.27
2023-01-31T11:32:50.100Z,98911.14
2023-01-31T11:35:20.734Z,98924.59
2023-01-31T11:37:56.888Z,98924.59
2023-01-31T11:40:31.314Z,98934.42
2023-01-31T11:43:01.326Z,98964.48
2023-01-31T11:45:33.870Z,98965.65
2023-01-31T11:48:09.887Z,98955.48
2023-01-31T11:50:40.045Z,98959.52
2023-01-31T11:53:13.585Z,98957.49
2023-01-31T11:55:42.699Z,98938.34
2023-01-31T11:58:13.390Z,98926.56
2023-01-31T12:00:42.647Z,98940.66
2023-01-31T12:03:13.293Z,98945.20
2023-01-31T12:05:46.013Z,98948.72
2023-01-31T12:08:19.295Z,98961.23
2023-01-31T12:10:48.398Z,98973.44
2023-01-31T12:13:20.868Z,98960.58
2023-01-31T12:15:56.091Z,98942.79
2023-01-31T12:18:28.594Z,98949.84
2023-01-31T12:20:58.805Z,98977.05
2023-01-31T12:23:38.323Z,99009.50
2023-01-31T12:26:09.774Z,99032.65
2023-01-31T12:28:46.464Z,99017.55
2023-01-31T12:31:18.658Z,99011.25
2023-01-31T12:33:55.543Z,99007.09
2023-01-31T12:36:26.258Z,98990.61
2023-01-31T12:39:17.340Z,99000.40
2023-01-31T12:41:53.623Z,99017.05
2023-01-31T12:44:33.051Z,99028.73
2023-01-31T12:47:12.583Z,99033.48
2023-01-31T12:50:01.906Z,99026.88
2023-01-31T12:52:45.793Z,99018.22
2023-01-31T12:55:16.608Z,99023.21
2023-01-31T12:58:05.868Z,98997.11
2023-01-31T13:00:42.823Z,98978.05
2023-01-31T13:03:13.392Z,98952.44
2023-01-31T13:05:58.823Z,98964.80
2023-01-31T13:08:29.261Z,98971.96
2023-01-31T13:11:04.729Z,98954.55
2023-01-31T13:13:41.307Z,98967.45
2023-01-31T13:16:30.224Z,98985.36
2023-01-31T13:19:00.984Z,99005.68
2023-01-31T13:21:32.082Z,99006.94
2023-01-31T13:24:05.421Z,98988.72
2023-01-31T13:26:34.832Z,99001.67
2023-01-31T13:29:08.743Z,99020.69
2023-01-31T13:31:39.811Z,99022.73
2023-01-31T13:34:10.677Z,99024.20
2023-01-31T13:36:47.245Z,98992.81
2023-01-31T13:39:17.771Z,99004.96
2023-01-31T13:41:46.935Z,99021.98
2023-01-31T13:44:16.209Z,99034.58
2023-01-31T13:46:52.387Z,99024.24
2023-01-31T13:49:21.888Z,99012.57
2023-01-31T13:51:52.636Z,99007.48
2023-01-31T13:54:23.385Z,99001.53
2023-01-31T13:56:56.096Z,99002.90
2023-01-31T13:59:26.607Z,98987.91
2023-01-31T14:01:56.105Z,99004.61
2023-01-31T14:04:26.631Z,99013.20
2023-01-31T14:06:57.361Z,99003.44
2023-01-31T14:09:42.892Z,98992.01
2023-01-31T14:12:13.508Z,99002.80
2023-01-31T14:14:42.991Z,99004.73
2023-01-31T14:17:15.696Z,98992.19
2023-01-31T14:19:51.368Z,98969.53
2023-01-31T14:22:34.030Z,98955.59
2023-01-31T14:25:02.658Z,98946.89
2023-01-31T14:27:44.871Z,98947.55
2023-01-31T14:30:27.843Z,98945.98
2023-01-31T14:33:04.279Z,98949.29
2023-01-31T14:35:34.877Z,98966.86
2023-01-31T14:38:22.052Z,98969.37
2023-01-31T14:40:52.697Z,98964.41
2023-01-31T14:43:36.015Z,98941.19
2023-01-31T14:46:15.703Z,98910.91
2023-01-31T14:48:49.485Z,98891.79
2023-01-31T14:51:26.430Z,98903.85
2023-01-31T14:53:57.069Z,98951.00
2023-01-31T14:56:45.757Z,98980.34
2023-01-31T14:59:19.198Z,98975.70
2023-01-31T15:01:48.459Z,98968.62
2023-01-31T15:04:19.108Z,98946.77
2023-01-31T15:06:49.683Z,98981.03
2023-01-31T15:09:20.726Z,98963.83
2023-01-31T15:11:50.515Z,98954.55
2023-01-31T15:14:33.863Z,98953.47
2023-01-31T15:17:04.903Z,98991.05
2023-01-31T15:19:38.307Z,99009.95
2023-01-31T15:22:09.397Z,99034.98
2023-01-31T15:24:43.177Z,99006.50
2023-01-31T15:27:22.930Z,99015.60
2023-01-31T15:29:53.547Z,98967.66
2023-01-31T15:32:24.131Z,98995.37
2023-01-31T15:35:00.728Z,98949.63
2023-01-31T15:37:31.235Z,98962.23
2023-01-31T15:40:07.334Z,98983.61
2023-01-31T15:42:36.828Z,98977.36
2023-01-31T15:45:22.971Z,98982.89
2023-01-31T15:48:02.228Z,98990.02
2023-01-31T15:50:32.997Z,99040.48
2023-01-31T15:53:06.554Z,99033.91
2023-01-31T15:55:36.612Z,99021.58
2023-01-31T15:58:09.293Z,99003.28
2023-01-31T16:00:39.028Z,99036.48
2023-01-31T16:03:09.152Z,99029.09
2023-01-31T16:05:39.529Z,99042.25
2023-01-31T16:08:27.816Z,99011.33
2023-01-31T16:10:57.365Z,99029.14
2023-01-31T16:13:26.721Z,99029.80
2023-01-31T16:15:56.259Z,99049.26
2023-01-31T16:18:25.536Z,99068.24
2023-01-31T16:20:55.348Z,99065.25
2023-01-31T16:23:34.276Z,99117.31
2023-01-31T16:26:20.588Z,99153.26
2023-01-31T16:28:51.372Z,99154.91
2023-01-31T16:31:22.349Z,99183.14
2023-01-31T16:33:54.919Z,99183.43
2023-01-31T16:36:31.454Z,99176.35
2023-01-31T16:39:01.411Z,99176.90
2023-01-31T16:41:34.823Z,99201.02
2023-01-31T16:44:04.012Z,99167.05
2023-01-31T16:46:40.241Z,99193.94
2023-01-31T16:49:11.155Z,99182.72
2023-01-31T16:51:43.711Z,99169.84
2023-01-31T16:54:25.413Z,99164.67
2023-01-31T16:57:06.627Z,99174.27
2023-01-31T16:59:38.527Z,99182.23
2023-01-31T17:02:12.223Z,99169.67
2023-01-31T17:04:41.808Z,99176.53
2023-01-31T17:07:12.466Z,99168.59
2023-01-31T17:09:41.799Z,99161.73
2023-01-31T17:12:15.200Z,99172.47
2023-01-31T17:14:44.538Z,99177.41
2023-01-31T17:17:20.637Z,99164.85
2023-01-31T17:19:44.530Z,99173.24
2023-01-31T17:22:15.943Z,99181.61
2023-01-31T17:24:45.955Z,99177.37
2023-01-31T17:27:16.263Z,99171.43
2023-01-31T17:29:48.350Z,99161.44
2023-01-31T17:32:18.341Z,99154.72
2023-01-31T17:34:49.530Z,99137.63
2023-01-31T17:37:30.050Z,99131.48
2023-01-31T17:39:49.536Z,99143.46
2023-01-31T17:42:19.943Z,99140.06
2023-01-31T17:44:49.505Z,99150.66
2023-01-31T17:47:19.313Z,99135.25
2023-01-31T17:49:48.633Z,99106.44
2023-01-31T17:52:17.896Z,99104.94
2023-01-31T17:54:47.171Z,99094.47
2023-01-31T17:57:18.796Z,99098.20
2023-01-31T17:59:48.062Z,99107.44
2023-01-31T18:02:17.404Z,99101.00
2023-01-31T18:04:46.777Z,99107.56
2023-01-31T18:07:17.452Z,99093.33
2023-01-31T18:09:46.796Z,99087.60
2023-01-31T18:12:16.724Z,99087.37
2023-01-31T18:14:45.921Z,99086.01
2023-01-31T18:17:15.163Z,99083.55
2023-01-31T18:19:44.930Z,99076.20
2023-01-31T18:22:15.004Z,99067.45
2023-01-31T18:24:44.385Z,99055.19
2023-01-31T18:27:13.885Z,99053.02
2023-01-31T18:29:43.166Z,99037.45
2023-01-31T18:32:12.693Z,99037.20
2023-01-31T18:34:41.902Z,99032.03
2023-01-31T18:37:13.203Z,99030.12
2023-01-31T18:39:42.534Z,99029.46
2023-01-31T18:42:11.797Z,99041.66
2023-01-31T18:44:41.272Z,99040.48
2023-01-31T18:47:14.003Z,99031.05
2023-01-31T18:49:45.803Z,99025.44
2023-01-31T18:52:15.065Z,99019.63
2023-01-31T18:54:44.404Z,99008.33
2023-01-31T18:57:13.731Z,99007.41
2023-01-31T18:59:42.929Z,99006.52
2023-01-31T19:02:13.060Z,98998.79
2023-01-31T19:04:42.290Z,98992.43
2023-01-31T19:07:11.552Z,98990.71
2023-01-31T19:09:41.575Z,98993.92
2023-01-31T19:12:11.507Z,98995.71
2023-01-31T19:14:41.871Z,98989.31
2023-01-31T19:17:11.991Z,98980.76
2023-01-31T19:19:41.561Z,98954.16
2023-01-31T19:22:10.971Z,98942.05
2023-01-31T19:24:43.687Z,98933.24
2023-01-31T19:27:12.845Z,98923.38
2023-01-31T19:29:42.663Z,98934.06
2023-01-31T19:32:12.225Z,98934.39
2023-01-31T19:34:41.935Z,98919.63
2023-01-31T19:37:11.215Z,98914.44
2023-01-31T19:39:40.735Z,98914.22
2023-01-31T19:42:10.607Z,98914.22
2023-01-31T19:44:40.648Z,98902.51
2023-01-31T19:47:10.663Z,98894.59
2023-01-31T19:49:39.862Z,98893.00
2023-01-31T19:52:09.792Z,98905.37
2023-01-31T19:54:41.641Z,98913.31
2023-01-31T19:57:11.574Z,98900.47
2023-01-31T19:59:42.068Z,98899.41
2023-01-31T20:02:13.279Z,98897.25
2023-01-31T20:04:42.432Z,98893.52
2023-01-31T20:07:11.585Z,98893.27
2023-01-31T20:09:43.499Z,98906.72
2023-01-31T20:12:13.169Z,98903.75
2023-01-31T20:14:42.357Z,98907.06
2023-01-31T20:17:11.630Z,98898.63
2023-01-31T20:19:41.851Z,98894.80
2023-01-31T20:22:11.668Z,98904.64
2023-01-31T20:24:41.789Z,98904.75
2023-01-31T20:27:11.752Z,98897.56
2023-01-31T20:29:41.677Z,98888.47
2023-01-31T20:32:13.155Z,98876.04
2023-01-31T20:34:42.407Z,98873.19
2023-01-31T20:37:11.734Z,98891.73
2023-01-31T20:39:41.015Z,98879.91
2023-01-31T20:42:14.721Z,98881.75
2023-01-31T20:44:44.007Z,98898.33
2023-01-31T20:47:13.330Z,98901.03
2023-01-31T20:49:42.736Z,98903.98
2023-01-31T20:52:12.040Z,98900.11
2023-01-31T20:54:41.740Z,98886.38
2023-01-31T20:57:13.437Z,98885.77
2023-01-31T20:59:42.605Z,98877.57
2023-01-31T21:02:12.051Z,98867.77
2023-01-31T21:04:41.654Z,98871.05
2023-01-31T21:07:11.631Z,98878.88
2023-01-31T21:09:41.819Z,98878.75
2023-01-31T21:12:11.777Z,98880.66
2023-01-31T21:14:40.992Z,98877.38
2023-01-31T21:17:10.230Z,98884.28
2023-01-31T21:19:39.995Z,98882.16
2023-01-31T21:22:10.109Z,98878.08
2023-01-31T21:24:40.206Z,98879.98
2023-01-31T21:27:10.192Z,98877.34
2023-01-31T21:29:40.243Z,98886.70
2023-01-31T21:32:10.013Z,98885.07
2023-01-31T21:34:40.950Z,98878.84
2023-01-31T21:37:10.893Z,98865.16
2023-01-31T21:39:40.932Z,98875.34
2023-01-31T21:42:17.001Z,98877.59
2023-01-31T21:44:46.241Z,98888.81
2023-01-31T21:47:15.807Z,98892.69
2023-01-31T21:49:45.156Z,98898.22
2023-01-31T21:52:14.492Z,98897.69
2023-01-31T21:54:43.686Z,98905.95
2023-01-31T21:57:12.977Z,98907.92
2023-01-31T21:59:43.616Z,98911.77
2023-01-31T22:02:12.822Z,98898.41
2023-01-31T22:04:42.116Z,98885.30
2023-01-31T22:07:12.444Z,98885.90
2023-01-31T22:09:42.435Z,98879.38
2023-01-31T22:12:12.050Z,98881.57
2023-01-31T22:14:42.260Z,98889.38
2023-01-31T22:17:11.876Z,98894.19
2023-01-31T22:19:41.239Z,98891.10
2023-01-31T22:22:11.360Z,98889.36
2023-01-31T22:24:41.275Z,98880.27
2023-01-31T22:27:11.275Z,98885.93
2023-01-31T22:29:42.389Z,98893.75
2023-01-31T22:32:11.950Z,98883.52
2023-01-31T22:34:41.400Z,98873.95
2023-01-31T22:37:11.595Z,98876.91
2023-01-31T22:39:41.144Z,98886.63
2023-01-31T22:42:11.177Z,98896.17
2023-01-31T22:44:41.048Z,98901.86
2023-01-31T22:47:10.989Z,98902.63
2023-01-31T22:49:42.237Z,98902.27
2023-01-31T22:52:12.052Z,98911.77
2023-01-31T22:54:41.252Z,98928.11
2023-01-31T22:57:11.138Z,98923.11
2023-01-31T22:59:41.158Z,98898.67
2023-01-31T23:02:11.026Z,98885.00
2023-01-31T23:04:42.019Z,98847.06
2023-01-31T23:07:11.967Z,98831.48
2023-01-31T23:09:41.991Z,98824.40
2023-01-31T23:12:12.126Z,98837.91
2023-01-31T23:14:42.934Z,98856.81
2023-01-31T23:17:29.470Z,98865.30
2023-01-31T23:19:58.812Z,98885.88
2023-01-31T23:22:28.123Z,98872.55
2023-01-31T23:24:57.554Z,98873.98
2023-01-31T23:27:26.855Z,98862.83
2023-01-31T23:29:56.118Z,98867.50
2023-01-31T23:32:25.322Z,98864.00
2023-01-31T23:34:54.539Z,98874.45
2023-01-31T23:37:23.875Z,98895.82
2023-01-31T23:39:53.095Z,98890.70
2023-01-31T23:42:22.413Z,98872.48
2023-01-31T23:44:51.724Z,98867.67
2023-01-31T23:47:20.920Z,98878.95
2023-01-31T23:49:50.215Z,98893.52
2023-01-31T23:52:19.499Z,98898.98
2023-01-31T23:54:48.823Z,98888.66
2023-01-31T23:57:18.178Z,98879.68
2023-01-31T23:59:48.047Z,98886.58
